Terminal Aerodrome Forecast
Issued by NWS

Home | Current Version | Previous Version | Text Only | Print | Product List | Glossary On
Versions: 1 2 3 4 5 6 7 8 9 10 11 12 13 14 15 16 17
208
FTUS42 KTBW 280520
TAFRSW
TAF
KRSW 280520Z 2806/2906 VRB03KT P6SM SCT250
     FM281500 20005KT P6SM VCTS SCT025CB BKN100
     FM281900 24008KT P6SM VCTS SCT060CB BKN110
     FM290000 25004KT P6SM SCT025 BKN200
     FM290300 00000KT P6SM SCT035 BKN150=

USA.gov is the U.S. government's official web portal to all federal, state and local government web resources and services.